createdAt,value
2019-01-31T00:00:41.991Z,24.95
2019-01-31T00:03:54.855Z,25.17
2019-01-31T00:07:04.510Z,24.13
2019-01-31T00:10:23.371Z,24.63
2019-01-31T00:13:22.386Z,24.08
2019-01-31T00:16:43.534Z,24.30
2019-01-31T00:19:42.587Z,27.48
2019-01-31T00:22:57.238Z,25.13
2019-01-31T00:26:25.896Z,25.05
2019-01-31T00:29:35.619Z,24.17
2019-01-31T00:32:45.373Z,24.07
2019-01-31T00:36:01.418Z,26.40
2019-01-31T00:39:21.843Z,22.70
2019-01-31T00:42:33.209Z,21.23
2019-01-31T00:45:38.354Z,20.17
2019-01-31T00:48:59.827Z,18.87
2019-01-31T00:52:19.525Z,20.37
2019-01-31T00:55:16.541Z,19.10
2019-01-31T00:58:11.756Z,17.30
2019-01-31T01:01:22.937Z,17.97
2019-01-31T01:04:58.880Z,21.43
2019-01-31T01:08:15.884Z,20.40
2019-01-31T01:12:04.465Z,19.90
2019-01-31T01:15:31.124Z,16.90
2019-01-31T01:18:40.676Z,17.80
2019-01-31T01:21:55.579Z,18.93
2019-01-31T01:25:36.533Z,20.98
2019-01-31T01:28:48.674Z,16.95
2019-01-31T01:32:01.044Z,13.60
2019-01-31T01:35:01.334Z,12.13
2019-01-31T01:38:27.237Z,12.63
2019-01-31T01:41:37.356Z,13.10
2019-01-31T01:45:04.294Z,11.57
2019-01-31T01:47:58.483Z,11.50
2019-01-31T01:51:28.096Z,13.70
2019-01-31T01:54:27.552Z,14.33
2019-01-31T01:58:06.283Z,15.20
2019-01-31T02:01:46.438Z,16.23
2019-01-31T02:05:08.468Z,14.47
2019-01-31T02:08:40.957Z,14.23
2019-01-31T02:11:39.127Z,14.43
2019-01-31T02:14:54.308Z,14.33
2019-01-31T02:18:12.845Z,15.98
2019-01-31T02:21:37.220Z,13.53
2019-01-31T02:24:40.288Z,14.95
2019-01-31T02:28:06.231Z,12.97
2019-01-31T02:31:43.015Z,16.50
2019-01-31T02:35:18.931Z,13.50
2019-01-31T02:38:56.416Z,11.80
2019-01-31T02:42:12.683Z,11.53
2019-01-31T02:45:23.844Z,10.40
2019-01-31T02:48:36.812Z,10.80
2019-01-31T02:52:06.025Z,10.57
2019-01-31T02:54:56.424Z,9.57
2019-01-31T02:58:23.010Z,10.20
2019-01-31T03:01:36.735Z,10.70
2019-01-31T03:04:40.016Z,9.50
2019-01-31T03:07:57.926Z,9.55
2019-01-31T03:11:06.236Z,9.30
2019-01-31T03:14:09.456Z,9.47
2019-01-31T03:17:34.953Z,11.23
2019-01-31T03:20:57.838Z,10.00
2019-01-31T03:24:28.698Z,8.90
2019-01-31T03:28:10.090Z,9.70
2019-01-31T03:31:32.690Z,8.57
2019-01-31T03:34:38.773Z,7.27
2019-01-31T03:37:35.556Z,8.23
2019-01-31T03:40:44.481Z,8.53
2019-01-31T03:43:45.879Z,10.55
2019-01-31T03:46:48.393Z,8.80
2019-01-31T03:49:57.131Z,9.77
2019-01-31T03:53:23.979Z,9.55
2019-01-31T03:56:39.534Z,11.48
2019-01-31T03:59:27.696Z,9.13
2019-01-31T04:02:51.487Z,10.07
2019-01-31T04:05:52.683Z,12.13
2019-01-31T04:08:25.467Z,12.57
2019-01-31T04:10:59.807Z,11.10
2019-01-31T04:13:34.103Z,11.07
2019-01-31T04:16:08.488Z,10.57
2019-01-31T04:18:41.244Z,10.57
2019-01-31T04:21:14.863Z,12.83
2019-01-31T04:23:47.834Z,15.50
2019-01-31T04:26:20.623Z,12.83
2019-01-31T04:28:55.433Z,13.98
2019-01-31T04:31:28.195Z,11.63
2019-01-31T04:34:00.914Z,11.80
2019-01-31T04:36:36.159Z,10.17
2019-01-31T04:39:10.046Z,9.97
2019-01-31T04:41:42.728Z,10.70
2019-01-31T04:44:15.755Z,8.97
2019-01-31T04:46:48.674Z,9.90
2019-01-31T04:49:21.308Z,9.53
2019-01-31T04:51:54.651Z,9.97
2019-01-31T04:54:27.468Z,10.17
2019-01-31T04:57:00.285Z,10.50
2019-01-31T04:59:33.406Z,11.33
2019-01-31T05:02:06.317Z,10.50
2019-01-31T05:04:38.976Z,9.77
2019-01-31T05:07:12.404Z,12.40
2019-01-31T05:09:46.421Z,15.53
2019-01-31T05:12:19.424Z,12.07
2019-01-31T05:14:52.444Z,10.00
2019-01-31T05:17:25.194Z,9.20
2019-01-31T05:19:58.739Z,8.73
2019-01-31T05:22:32.248Z,7.90
2019-01-31T05:25:06.424Z,9.40
2019-01-31T05:27:39.435Z,7.57
2019-01-31T05:30:15.774Z,7.03
2019-01-31T05:32:48.657Z,8.82
2019-01-31T05:35:22.164Z,7.90
2019-01-31T05:37:55.401Z,8.17
2019-01-31T05:40:28.196Z,7.03
2019-01-31T05:43:01.009Z,7.90
2019-01-31T05:45:34.173Z,7.30
2019-01-31T05:48:06.971Z,9.10
2019-01-31T05:50:39.741Z,8.60
2019-01-31T05:53:16.175Z,8.90
2019-01-31T05:55:48.929Z,8.50
2019-01-31T05:58:21.797Z,8.13
2019-01-31T06:00:54.948Z,7.03
2019-01-31T06:03:28.960Z,7.90
2019-01-31T06:06:01.823Z,7.90
2019-01-31T06:08:35.931Z,8.30
2019-01-31T06:11:08.940Z,9.90
2019-01-31T06:13:44.139Z,8.83
2019-01-31T06:16:18.257Z,9.02
2019-01-31T06:18:52.064Z,9.73
2019-01-31T06:21:24.800Z,8.37
2019-01-31T06:23:57.953Z,8.13
2019-01-31T06:26:31.396Z,6.97
2019-01-31T06:29:05.275Z,7.70
2019-01-31T06:31:37.998Z,8.68
2019-01-31T06:34:10.689Z,7.57
2019-01-31T06:36:44.302Z,7.10
2019-01-31T06:39:20.090Z,7.50
2019-01-31T06:41:53.011Z,8.10
2019-01-31T06:44:26.897Z,8.70
2019-01-31T06:47:00.879Z,8.23
2019-01-31T06:49:33.541Z,8.10
2019-01-31T06:52:08.771Z,7.30
2019-01-31T06:54:42.781Z,7.80
2019-01-31T06:57:16.275Z,8.57
2019-01-31T06:59:51.770Z,7.40
2019-01-31T07:02:25.824Z,7.87
2019-01-31T07:04:59.293Z,10.68
2019-01-31T07:07:32.664Z,10.53
2019-01-31T07:10:15.916Z,9.70
2019-01-31T07:12:48.891Z,10.20
2019-01-31T07:15:23.839Z,8.87
2019-01-31T07:17:57.169Z,9.43
2019-01-31T07:20:30.192Z,8.00
2019-01-31T07:23:05.090Z,7.50
2019-01-31T07:25:37.979Z,8.67
2019-01-31T07:28:18.220Z,8.77
2019-01-31T07:30:52.025Z,9.77
2019-01-31T07:33:25.853Z,9.00
2019-01-31T07:35:58.746Z,8.67
2019-01-31T07:38:31.883Z,10.63
2019-01-31T07:41:04.719Z,9.83
2019-01-31T07:43:38.600Z,9.90
2019-01-31T07:46:12.840Z,9.90
2019-01-31T07:48:46.402Z,10.10
2019-01-31T07:51:19.174Z,17.20
2019-01-31T07:53:52.281Z,15.27
2019-01-31T07:56:25.176Z,15.47
2019-01-31T07:58:57.919Z,16.80
2019-01-31T08:01:33.644Z,16.90
2019-01-31T08:04:06.847Z,23.93
2019-01-31T08:06:39.586Z,22.57
2019-01-31T08:09:12.984Z,19.00
2019-01-31T08:11:52.297Z,17.23
2019-01-31T08:14:26.997Z,15.70
2019-01-31T08:17:02.176Z,13.33
2019-01-31T08:19:35.620Z,11.37
2019-01-31T08:22:09.151Z,10.35
2019-01-31T08:24:42.376Z,10.27
2019-01-31T08:27:16.208Z,10.00
2019-01-31T08:29:50.299Z,10.53
2019-01-31T08:32:23.828Z,11.80
2019-01-31T08:34:57.461Z,15.07
2019-01-31T08:37:30.491Z,14.53
2019-01-31T08:40:03.710Z,11.85
2019-01-31T08:42:40.334Z,10.40
2019-01-31T08:45:20.615Z,10.10
2019-01-31T08:47:54.347Z,9.80
2019-01-31T08:50:31.201Z,9.03
2019-01-31T08:53:04.981Z,8.70
2019-01-31T08:55:38.938Z,9.27
2019-01-31T08:58:13.673Z,9.48
2019-01-31T09:00:46.597Z,8.20
2019-01-31T09:03:22.466Z,7.43
2019-01-31T09:05:55.881Z,7.50
2019-01-31T09:08:51.147Z,8.35
2019-01-31T09:11:23.983Z,6.83
2019-01-31T09:13:57.325Z,5.93
2019-01-31T09:16:30.964Z,5.50
2019-01-31T09:19:04.846Z,5.60
2019-01-31T09:22:07.787Z,5.37
2019-01-31T09:25:44.375Z,5.23
2019-01-31T09:29:13.162Z,4.63
2019-01-31T09:32:45.320Z,5.23
2019-01-31T09:36:02.456Z,5.17
2019-01-31T09:39:18.605Z,4.50
2019-01-31T09:42:41.836Z,4.43
2019-01-31T09:45:46.457Z,4.78
2019-01-31T09:48:54.772Z,4.70
2019-01-31T09:52:32.240Z,4.60
2019-01-31T09:56:28.351Z,5.00
2019-01-31T09:59:55.006Z,5.30
2019-01-31T10:03:21.209Z,4.53
2019-01-31T10:06:31.670Z,4.10
2019-01-31T10:09:59.204Z,3.93
2019-01-31T10:13:40.047Z,5.57
2019-01-31T10:16:51.351Z,4.00
2019-01-31T10:20:01.556Z,3.63
2019-01-31T10:23:33.177Z,3.70
2019-01-31T10:26:44.383Z,3.77
2019-01-31T10:29:48.531Z,4.33
2019-01-31T10:33:08.321Z,4.40
2019-01-31T10:36:58.991Z,4.75
2019-01-31T10:40:23.792Z,4.70
2019-01-31T10:43:33.711Z,4.90
2019-01-31T10:46:40.691Z,5.10
2019-01-31T10:49:45.566Z,5.33
2019-01-31T10:53:06.916Z,5.65
2019-01-31T10:56:20.038Z,5.77
2019-01-31T10:59:50.550Z,5.90
2019-01-31T11:03:15.465Z,5.70
2019-01-31T11:06:45.482Z,5.40
2019-01-31T11:10:00.968Z,5.53
2019-01-31T11:13:32.955Z,6.05
2019-01-31T11:17:12.654Z,5.72
2019-01-31T11:20:49.252Z,5.60
2019-01-31T11:24:19.884Z,6.30
2019-01-31T11:27:46.915Z,6.60
2019-01-31T11:30:59.919Z,7.00
2019-01-31T11:34:32.799Z,6.62
2019-01-31T11:38:15.245Z,7.50
2019-01-31T11:41:45.172Z,8.32
2019-01-31T11:45:22.625Z,7.90
2019-01-31T11:49:06.660Z,8.40
2019-01-31T11:52:35.536Z,9.93
2019-01-31T11:55:38.846Z,9.77
2019-01-31T11:59:06.582Z,8.37
2019-01-31T12:01:42.922Z,8.37
2019-01-31T12:04:20.384Z,7.53
2019-01-31T12:06:58.088Z,7.60
2019-01-31T12:09:32.156Z,8.40
2019-01-31T12:12:09.300Z,8.40
2019-01-31T12:14:42.005Z,8.80
2019-01-31T12:17:14.845Z,8.70
2019-01-31T12:19:47.625Z,8.17
2019-01-31T12:22:20.435Z,9.40
2019-01-31T12:24:55.028Z,8.57
2019-01-31T12:27:27.956Z,7.93
2019-01-31T12:30:00.775Z,8.43
2019-01-31T12:32:37.741Z,8.70
2019-01-31T12:35:12.816Z,8.77
2019-01-31T12:37:49.187Z,8.63
2019-01-31T12:40:22.282Z,9.95
2019-01-31T12:42:56.375Z,8.93
2019-01-31T12:45:29.483Z,8.98
2019-01-31T12:48:06.503Z,9.37
2019-01-31T12:50:43.257Z,9.90
2019-01-31T12:53:24.920Z,11.82
2019-01-31T12:55:57.642Z,11.70
2019-01-31T12:58:33.840Z,13.23
2019-01-31T13:01:10.992Z,11.03
2019-01-31T13:03:45.380Z,10.50
2019-01-31T13:06:18.300Z,10.00
2019-01-31T13:08:51.257Z,10.10
2019-01-31T13:11:24.610Z,9.90
2019-01-31T13:14:01.433Z,11.07
2019-01-31T13:16:34.428Z,10.07
2019-01-31T13:19:11.690Z,11.07
2019-01-31T13:21:48.534Z,11.17
2019-01-31T13:24:21.483Z,12.03
2019-01-31T13:26:56.055Z,11.17
2019-01-31T13:29:30.534Z,11.67
2019-01-31T13:32:05.172Z,12.37
2019-01-31T13:34:41.202Z,13.03
2019-01-31T13:37:13.936Z,12.90
2019-01-31T13:39:47.759Z,12.57
2019-01-31T13:42:21.548Z,13.03
2019-01-31T13:44:57.103Z,13.00
2019-01-31T13:47:30.048Z,12.23
2019-01-31T13:50:05.108Z,12.40
2019-01-31T13:52:40.924Z,13.17
2019-01-31T13:55:23.205Z,13.48
2019-01-31T13:58:01.867Z,13.43
2019-01-31T14:00:40.170Z,15.37
2019-01-31T14:03:13.013Z,13.63
2019-01-31T14:05:48.618Z,15.20
2019-01-31T14:08:22.784Z,15.97
2019-01-31T14:10:59.449Z,15.40
2019-01-31T14:13:35.343Z,15.73
2019-01-31T14:16:22.572Z,15.63
2019-01-31T14:19:11.410Z,16.10
2019-01-31T14:21:48.840Z,16.33
2019-01-31T14:24:23.693Z,17.87
2019-01-31T14:26:58.031Z,15.87
2019-01-31T14:29:33.347Z,15.40
2019-01-31T14:32:15.346Z,15.67
2019-01-31T14:34:49.204Z,15.50
2019-01-31T14:37:24.410Z,16.60
2019-01-31T14:40:00.612Z,16.03
2019-01-31T14:42:34.289Z,16.92
2019-01-31T14:45:08.343Z,16.73
2019-01-31T14:47:45.525Z,15.90
2019-01-31T14:50:27.501Z,16.40
2019-01-31T14:53:02.713Z,17.98
2019-01-31T14:55:36.402Z,18.07
2019-01-31T14:58:12.049Z,18.48
2019-01-31T15:00:47.931Z,17.73
2019-01-31T15:03:25.440Z,17.63
2019-01-31T15:05:59.367Z,17.20
2019-01-31T15:08:33.362Z,16.63
2019-01-31T15:11:06.342Z,16.40
2019-01-31T15:13:40.027Z,17.43
2019-01-31T15:16:13.585Z,18.70
2019-01-31T15:18:50.233Z,18.42
2019-01-31T15:21:25.312Z,18.70
2019-01-31T15:23:59.774Z,18.93
2019-01-31T15:26:34.523Z,19.27
2019-01-31T15:29:07.688Z,17.67
2019-01-31T15:31:42.785Z,21.93
2019-01-31T15:34:16.297Z,19.20
2019-01-31T15:36:50.399Z,19.03
2019-01-31T15:39:24.228Z,19.27
2019-01-31T15:41:59.326Z,18.77
2019-01-31T15:44:42.784Z,17.93
2019-01-31T15:47:17.489Z,20.90
2019-01-31T15:49:53.709Z,20.67
2019-01-31T15:52:27.184Z,18.00
2019-01-31T15:55:02.612Z,19.47
2019-01-31T15:57:39.519Z,19.67
2019-01-31T16:00:29.203Z,18.90
2019-01-31T16:03:05.090Z,19.70
2019-01-31T16:05:41.206Z,17.93
2019-01-31T16:08:14.312Z,19.17
2019-01-31T16:10:48.706Z,19.60
2019-01-31T16:13:24.358Z,23.00
2019-01-31T16:15:59.712Z,22.67
2019-01-31T16:18:32.500Z,26.20
2019-01-31T16:21:08.255Z,24.80
2019-01-31T16:23:42.758Z,22.80
2019-01-31T16:26:18.460Z,22.40
2019-01-31T16:28:54.741Z,23.07
2019-01-31T16:31:36.049Z,23.40
2019-01-31T16:34:09.824Z,21.77
2019-01-31T16:36:43.689Z,26.80
2019-01-31T16:39:19.304Z,29.23
2019-01-31T16:41:54.147Z,23.93
2019-01-31T16:44:28.841Z,30.00
2019-01-31T16:47:01.989Z,24.07
2019-01-31T16:49:35.927Z,24.50
2019-01-31T16:52:09.606Z,21.77
2019-01-31T16:54:46.456Z,25.20
2019-01-31T16:57:33.471Z,25.47
2019-01-31T17:00:20.285Z,28.17
2019-01-31T17:03:06.374Z,26.20
2019-01-31T17:05:40.933Z,27.50
2019-01-31T17:08:16.239Z,28.57
2019-01-31T17:10:49.807Z,30.63
2019-01-31T17:13:28.425Z,33.07
2019-01-31T17:16:01.636Z,42.38
2019-01-31T17:18:38.744Z,37.73
2019-01-31T17:21:13.552Z,36.33
2019-01-31T17:23:49.515Z,39.63
2019-01-31T17:26:24.617Z,41.70
2019-01-31T17:28:59.683Z,40.53
2019-01-31T17:31:35.603Z,41.80
2019-01-31T17:34:11.282Z,38.37
2019-01-31T17:36:46.271Z,44.88
2019-01-31T17:39:33.225Z,43.80
2019-01-31T17:42:06.615Z,39.00
2019-01-31T17:44:40.668Z,35.43
2019-01-31T17:47:15.616Z,40.80
2019-01-31T17:49:49.990Z,36.97
2019-01-31T17:52:27.522Z,39.27
2019-01-31T17:55:01.198Z,34.37
2019-01-31T17:57:34.222Z,35.80
2019-01-31T18:00:24.919Z,39.53
2019-01-31T18:02:58.969Z,41.88
2019-01-31T18:05:34.180Z,38.73
2019-01-31T18:08:09.353Z,38.80
2019-01-31T18:10:45.859Z,39.42
2019-01-31T18:13:20.390Z,37.33
2019-01-31T18:15:53.361Z,39.33
2019-01-31T18:18:29.908Z,36.73
2019-01-31T18:21:04.556Z,37.70
2019-01-31T18:23:42.333Z,38.77
2019-01-31T18:26:16.285Z,38.63
2019-01-31T18:28:48.989Z,42.42
2019-01-31T18:31:23.384Z,37.43
2019-01-31T18:33:58.289Z,35.93
2019-01-31T18:36:34.739Z,42.00
2019-01-31T18:39:11.994Z,38.57
2019-01-31T18:41:46.378Z,35.07
2019-01-31T18:44:20.038Z,35.57
2019-01-31T18:46:55.693Z,37.40
2019-01-31T18:49:31.003Z,38.57
2019-01-31T18:52:07.745Z,37.80
2019-01-31T18:54:41.897Z,38.33
2019-01-31T18:57:14.726Z,40.47
2019-01-31T18:59:49.404Z,40.90
2019-01-31T19:02:24.262Z,39.57
2019-01-31T19:04:58.058Z,40.93
2019-01-31T19:07:37.504Z,38.60
2019-01-31T19:10:15.659Z,37.13
2019-01-31T19:12:50.934Z,37.37
2019-01-31T19:15:27.337Z,35.57
2019-01-31T19:18:05.854Z,37.33
2019-01-31T19:20:46.372Z,37.60
2019-01-31T19:24:11.840Z,39.03
2019-01-31T19:26:50.276Z,38.17
2019-01-31T19:29:27.210Z,37.50
2019-01-31T19:32:01.560Z,32.43
2019-01-31T19:34:38.037Z,33.57
2019-01-31T19:37:12.934Z,34.97
2019-01-31T19:39:50.782Z,32.70
2019-01-31T19:42:24.331Z,34.27
2019-01-31T19:44:59.531Z,31.93
2019-01-31T19:47:33.349Z,35.43
2019-01-31T19:50:08.293Z,34.57
2019-01-31T19:52:43.077Z,32.87
2019-01-31T19:55:19.751Z,32.43
2019-01-31T19:57:54.079Z,33.77
2019-01-31T20:00:31.152Z,34.80
2019-01-31T20:03:05.636Z,35.20
2019-01-31T20:05:40.598Z,35.23
2019-01-31T20:08:13.863Z,35.60
2019-01-31T20:10:53.395Z,36.17
2019-01-31T20:13:28.057Z,34.93
2019-01-31T20:16:28.543Z,41.15
2019-01-31T20:19:02.569Z,36.27
2019-01-31T20:21:39.669Z,34.80
2019-01-31T20:24:14.503Z,34.47
2019-01-31T20:26:49.904Z,33.70
2019-01-31T20:29:26.575Z,31.10
2019-01-31T20:32:02.246Z,29.13
2019-01-31T20:34:37.960Z,32.23
2019-01-31T20:37:12.869Z,30.00
2019-01-31T20:39:55.612Z,30.33
2019-01-31T20:42:30.746Z,32.03
2019-01-31T20:45:10.454Z,32.60
2019-01-31T20:47:44.616Z,31.23
2019-01-31T20:50:26.555Z,29.60
2019-01-31T20:53:01.171Z,27.93
2019-01-31T20:55:35.372Z,27.57
2019-01-31T20:58:08.996Z,30.03
2019-01-31T21:00:46.486Z,28.87
2019-01-31T21:03:20.670Z,29.00
2019-01-31T21:05:56.714Z,30.00
2019-01-31T21:08:29.460Z,30.60
2019-01-31T21:11:02.510Z,32.00
2019-01-31T21:13:41.387Z,29.17
2019-01-31T21:16:22.589Z,28.47
2019-01-31T21:19:02.526Z,29.60
2019-01-31T21:21:42.450Z,28.33
2019-01-31T21:24:17.648Z,25.37
2019-01-31T21:26:53.751Z,28.37
2019-01-31T21:29:33.346Z,27.13
2019-01-31T21:32:09.082Z,26.53
2019-01-31T21:34:48.605Z,28.63
2019-01-31T21:37:26.159Z,27.20
2019-01-31T21:40:05.638Z,27.57
2019-01-31T21:42:44.418Z,26.53
2019-01-31T21:45:21.069Z,25.67
2019-01-31T21:47:54.463Z,25.43
2019-01-31T21:50:29.003Z,24.33
2019-01-31T21:53:08.006Z,24.67
2019-01-31T21:55:45.345Z,24.57
2019-01-31T21:58:23.472Z,24.60
2019-01-31T22:01:01.666Z,24.00
2019-01-31T22:03:36.190Z,24.67
2019-01-31T22:06:22.587Z,24.00
2019-01-31T22:09:24.902Z,21.63
2019-01-31T22:12:03.900Z,23.43
2019-01-31T22:14:40.848Z,22.17
2019-01-31T22:17:24.367Z,22.10
2019-01-31T22:20:11.120Z,20.07
2019-01-31T22:22:47.676Z,20.00
2019-01-31T22:25:26.854Z,19.23
2019-01-31T22:28:00.740Z,18.87
2019-01-31T22:30:39.480Z,18.37
2019-01-31T22:33:12.511Z,17.93
2019-01-31T22:35:45.348Z,17.73
2019-01-31T22:38:20.549Z,15.10
2019-01-31T22:40:55.236Z,15.40
2019-01-31T22:43:28.737Z,15.87
2019-01-31T22:46:02.529Z,15.40
2019-01-31T22:48:36.446Z,13.38
2019-01-31T22:51:09.817Z,13.27
2019-01-31T22:53:43.851Z,12.90
2019-01-31T22:56:18.464Z,11.73
2019-01-31T22:58:51.185Z,10.97
2019-01-31T23:01:38.861Z,11.53
2019-01-31T23:04:11.808Z,10.50
2019-01-31T23:06:45.084Z,11.03
2019-01-31T23:09:18.401Z,10.00
2019-01-31T23:11:51.297Z,9.27
2019-01-31T23:14:24.209Z,8.83
2019-01-31T23:16:57.509Z,8.13
2019-01-31T23:19:32.797Z,8.43
2019-01-31T23:22:07.459Z,8.45
2019-01-31T23:24:40.743Z,7.60
2019-01-31T23:27:14.404Z,7.85
2019-01-31T23:29:48.269Z,7.10
2019-01-31T23:32:22.408Z,6.57
2019-01-31T23:35:02.791Z,6.63
2019-01-31T23:37:36.676Z,6.20
2019-01-31T23:40:12.005Z,6.57
2019-01-31T23:42:44.795Z,5.20
2019-01-31T23:45:38.565Z,5.50
2019-01-31T23:48:11.389Z,5.60
2019-01-31T23:50:44.159Z,5.60
2019-01-31T23:53:18.243Z,5.57
2019-01-31T23:55:51.754Z,5.27
2019-01-31T23:58:26.859Z,5.27
